createdAt,value
2023-04-18T00:00:21.958Z,8.97
2023-04-18T00:05:25.693Z,8.73
2023-04-18T00:10:30.610Z,9.27
2023-04-18T00:15:35.462Z,8.77
2023-04-18T00:20:39.442Z,8.80
2023-04-18T00:25:44.285Z,9.13
2023-04-18T00:30:48.937Z,8.90
2023-04-18T00:35:52.682Z,9.17
2023-04-18T00:40:57.662Z,9.00
2023-04-18T00:46:01.772Z,9.23
2023-04-18T00:51:06.173Z,9.23
2023-04-18T00:56:11.646Z,9.03
2023-04-18T01:01:15.159Z,9.73
2023-04-18T01:06:20.682Z,9.53
2023-04-18T01:11:25.767Z,10.63
2023-04-18T01:16:29.940Z,9.10
2023-04-18T01:21:37.377Z,9.57
2023-04-18T01:26:45.002Z,9.10
2023-04-18T01:31:48.524Z,9.30
2023-04-18T01:36:52.449Z,9.83
2023-04-18T01:41:57.405Z,10.10
2023-04-18T01:47:01.249Z,9.80
2023-04-18T01:52:05.156Z,11.30
2023-04-18T01:57:10.274Z,10.00
2023-04-18T02:02:15.145Z,10.20
2023-04-18T02:07:18.718Z,10.63
2023-04-18T02:12:23.819Z,10.47
2023-04-18T02:17:27.416Z,10.20
2023-04-18T02:22:31.615Z,9.30
2023-04-18T02:27:39.105Z,9.07
2023-04-18T02:32:42.920Z,9.23
2023-04-18T02:37:46.390Z,8.97
2023-04-18T02:42:51.736Z,8.40
2023-04-18T02:47:56.660Z,8.10
2023-04-18T02:53:00.580Z,7.87
2023-04-18T02:58:16.122Z,8.07
2023-04-18T03:03:28.406Z,7.47
2023-04-18T03:08:48.398Z,9.30
2023-04-18T03:13:54.793Z,8.30
2023-04-18T03:19:01.587Z,8.47
2023-04-18T03:24:07.194Z,8.67
2023-04-18T03:29:13.434Z,9.00
2023-04-18T03:34:20.543Z,9.27
2023-04-18T03:39:24.102Z,8.97
2023-04-18T03:44:31.366Z,8.27
2023-04-18T03:49:35.464Z,9.63
2023-04-18T03:54:40.336Z,10.73
2023-04-18T03:59:47.795Z,10.13
2023-04-18T04:04:51.899Z,11.13
2023-04-18T04:09:56.107Z,10.60
2023-04-18T04:15:01.431Z,11.70
2023-04-18T04:20:09.502Z,11.97
2023-04-18T04:25:13.872Z,11.83
2023-04-18T04:30:21.147Z,12.47
2023-04-18T04:35:25.288Z,11.93
2023-04-18T04:40:29.274Z,11.80
2023-04-18T04:45:43.215Z,12.20
2023-04-18T04:50:54.314Z,11.87
2023-04-18T04:55:58.591Z,10.97
2023-04-18T05:01:03.544Z,10.87
2023-04-18T05:06:11.422Z,11.53
2023-04-18T05:11:15.211Z,10.60
2023-04-18T05:16:20.201Z,10.70
2023-04-18T05:21:24.774Z,10.27
2023-04-18T05:26:28.497Z,10.00
2023-04-18T05:31:36.711Z,10.03
2023-04-18T05:36:40.543Z,9.40
2023-04-18T05:41:44.390Z,10.23
2023-04-18T05:46:51.412Z,9.90
2023-04-18T05:51:56.579Z,8.73
2023-04-18T05:57:00.865Z,8.57
2023-04-18T06:02:10.264Z,8.47
2023-04-18T06:07:13.848Z,9.10
2023-04-18T06:12:17.392Z,8.53
2023-04-18T06:17:23.057Z,7.93
2023-04-18T06:22:26.598Z,8.80
2023-04-18T06:27:31.941Z,8.60
2023-04-18T06:32:37.634Z,7.77
2023-04-18T06:37:44.139Z,8.23
2023-04-18T06:42:47.912Z,8.50
2023-04-18T06:47:53.223Z,7.77
2023-04-18T06:52:57.287Z,8.43
2023-04-18T06:58:01.680Z,8.80
2023-04-18T07:03:11.381Z,8.47
2023-04-18T07:08:15.598Z,9.03
2023-04-18T07:13:18.997Z,10.73
2023-04-18T07:18:36.752Z,10.30
2023-04-18T07:23:41.644Z,8.90
2023-04-18T07:28:45.148Z,7.70
2023-04-18T07:33:50.163Z,8.53
2023-04-18T07:38:53.680Z,8.03
2023-04-18T07:43:57.406Z,8.20
2023-04-18T07:49:03.691Z,7.67
2023-04-18T07:54:07.375Z,7.93
2023-04-18T07:59:10.821Z,6.93
2023-04-18T08:04:15.918Z,7.00
2023-04-18T08:09:20.681Z,7.70
2023-04-18T08:14:24.199Z,7.40
2023-04-18T08:19:29.099Z,7.53
2023-04-18T08:24:32.793Z,7.40
2023-04-18T08:29:36.253Z,7.03
2023-04-18T08:34:41.109Z,8.50
2023-04-18T08:39:45.008Z,8.10
2023-04-18T08:44:48.628Z,8.53
2023-04-18T08:49:53.968Z,8.20
2023-04-18T08:54:57.824Z,8.43
2023-04-18T09:00:02.076Z,8.53
2023-04-18T09:05:14.525Z,7.57
2023-04-18T09:10:27.572Z,9.13
2023-04-18T09:15:31.338Z,10.27
2023-04-18T09:20:38.307Z,9.27
2023-04-18T09:25:46.873Z,10.03
2023-04-18T09:30:53.163Z,8.80
2023-04-18T09:36:00.465Z,9.00
2023-04-18T09:41:10.050Z,9.47
2023-04-18T09:46:14.609Z,9.20
2023-04-18T09:51:20.115Z,8.40
2023-04-18T09:56:26.803Z,8.03
2023-04-18T10:01:31.005Z,9.63
2023-04-18T10:06:39.676Z,8.60
2023-04-18T10:11:43.864Z,9.10
2023-04-18T10:16:49.262Z,8.57
2023-04-18T10:21:57.168Z,10.73
2023-04-18T10:27:00.571Z,7.43
2023-04-18T10:32:07.673Z,7.40
2023-04-18T10:37:14.320Z,7.90
2023-04-18T10:42:17.839Z,6.80
2023-04-18T10:47:24.240Z,6.20
2023-04-18T10:52:30.815Z,6.67
2023-04-18T10:57:42.300Z,6.77
2023-04-18T11:02:57.962Z,6.00
2023-04-18T11:08:03.203Z,5.10
2023-04-18T11:13:07.244Z,5.33
2023-04-18T11:18:11.045Z,5.40
2023-04-18T11:23:21.574Z,4.50
2023-04-18T11:28:26.090Z,5.00
2023-04-18T11:33:30.401Z,4.93
2023-04-18T11:38:35.993Z,5.10
2023-04-18T11:43:43.650Z,4.77
2023-04-18T11:48:47.895Z,4.83
2023-04-18T11:53:53.384Z,4.23
2023-04-18T11:58:57.152Z,4.63
2023-04-18T12:04:05.253Z,3.90
2023-04-18T12:09:15.168Z,3.95
2023-04-18T12:14:22.372Z,4.03
2023-04-18T12:19:28.852Z,4.60
2023-04-18T12:24:34.659Z,4.23
2023-04-18T12:29:38.514Z,4.57
2023-04-18T12:34:41.930Z,4.03
2023-04-18T12:39:47.013Z,4.18
2023-04-18T12:44:50.707Z,3.67
2023-04-18T12:49:54.197Z,3.25
2023-04-18T12:54:59.469Z,3.90
2023-04-18T13:00:04.919Z,4.00
2023-04-18T13:05:10.094Z,4.13
2023-04-18T13:10:16.214Z,4.13
2023-04-18T13:15:22.789Z,4.03
2023-04-18T13:20:26.357Z,3.67
2023-04-18T13:25:31.416Z,3.67
2023-04-18T13:30:36.030Z,4.17
2023-04-18T13:35:39.501Z,3.87
2023-04-18T13:40:44.396Z,3.47
2023-04-18T13:45:48.170Z,3.57
2023-04-18T13:50:51.673Z,4.00
2023-04-18T13:55:57.335Z,3.80
2023-04-18T14:01:01.019Z,4.00
2023-04-18T14:06:04.655Z,3.40
2023-04-18T14:11:09.792Z,3.80
2023-04-18T14:16:14.903Z,4.40
2023-04-18T14:21:18.817Z,4.47
2023-04-18T14:26:24.496Z,4.90
2023-04-18T14:31:28.532Z,4.27
2023-04-18T14:36:32.751Z,5.03
2023-04-18T14:41:37.620Z,4.43
2023-04-18T14:46:41.389Z,5.50
2023-04-18T14:51:45.036Z,5.33
2023-04-18T14:56:50.402Z,5.60
2023-04-18T15:01:54.002Z,5.70
2023-04-18T15:06:57.783Z,6.33
2023-04-18T15:12:02.964Z,5.73
2023-04-18T15:17:06.977Z,7.37
2023-04-18T15:22:10.931Z,6.80
2023-04-18T15:27:16.023Z,6.63
2023-04-18T15:32:20.929Z,5.80
2023-04-18T15:37:24.824Z,5.83
2023-04-18T15:42:31.556Z,5.73
2023-04-18T15:47:35.466Z,5.43
2023-04-18T15:52:40.981Z,4.90
2023-04-18T15:57:46.470Z,4.97
2023-04-18T16:02:50.041Z,5.20
2023-04-18T16:07:53.936Z,5.50
2023-04-18T16:12:59.640Z,5.50
2023-04-18T16:18:03.302Z,5.70
2023-04-18T16:23:07.236Z,5.50
2023-04-18T16:28:12.136Z,6.50
2023-04-18T16:33:15.753Z,5.87
2023-04-18T16:38:19.625Z,6.07
2023-04-18T16:43:26.977Z,6.30
2023-04-18T16:48:30.938Z,5.80
2023-04-18T16:53:35.022Z,6.03
2023-04-18T16:58:40.161Z,6.20
2023-04-18T17:03:45.291Z,6.63
2023-04-18T17:08:49.211Z,5.83
2023-04-18T17:13:54.085Z,6.47
2023-04-18T17:18:57.872Z,6.30
2023-04-18T17:24:03.818Z,6.40
2023-04-18T17:29:09.109Z,6.13
2023-04-18T17:34:12.576Z,6.60
2023-04-18T17:39:17.055Z,6.50
2023-04-18T17:44:22.027Z,6.20
2023-04-18T17:49:31.428Z,6.73
2023-04-18T17:54:35.164Z,6.80
2023-04-18T17:59:40.674Z,9.53
2023-04-18T18:04:44.538Z,9.00
2023-04-18T18:09:48.090Z,6.17
2023-04-18T18:14:52.932Z,6.90
2023-04-18T18:19:56.592Z,6.80
2023-04-18T18:25:00.494Z,7.07
2023-04-18T18:30:06.264Z,6.43
2023-04-18T18:35:13.775Z,6.97
2023-04-18T18:40:17.892Z,6.33
2023-04-18T18:45:23.151Z,6.03
2023-04-18T18:50:28.502Z,6.30
2023-04-18T18:55:32.005Z,7.07
2023-04-18T19:00:39.300Z,6.57
2023-04-18T19:05:42.787Z,6.30
2023-04-18T19:10:46.268Z,6.30
2023-04-18T19:15:51.224Z,6.43
2023-04-18T19:20:54.821Z,6.40
2023-04-18T19:25:58.395Z,6.97
2023-04-18T19:31:03.337Z,7.70
2023-04-18T19:36:07.454Z,7.80
2023-04-18T19:41:11.538Z,9.27
2023-04-18T19:46:16.552Z,9.37
2023-04-18T19:51:20.470Z,9.00
2023-04-18T19:56:23.953Z,9.10
2023-04-18T20:01:29.180Z,8.53
2023-04-18T20:06:32.726Z,8.20
2023-04-18T20:11:36.472Z,6.97
2023-04-18T20:16:45.932Z,6.97
2023-04-18T20:21:49.714Z,7.53
2023-04-18T20:26:53.184Z,7.43
2023-04-18T20:31:58.119Z,8.87
2023-04-18T20:37:01.536Z,8.67
2023-04-18T20:42:05.474Z,8.40
2023-04-18T20:47:10.720Z,8.60
2023-04-18T20:52:14.520Z,8.87
2023-04-18T20:57:18.049Z,8.60
2023-04-18T21:02:23.206Z,7.93
2023-04-18T21:07:26.771Z,8.43
2023-04-18T21:12:30.294Z,9.10
2023-04-18T21:17:35.586Z,9.83
2023-04-18T21:22:39.085Z,9.80
2023-04-18T21:27:42.770Z,7.90
2023-04-18T21:32:49.323Z,9.80
2023-04-18T21:37:53.116Z,8.50
2023-04-18T21:42:56.851Z,8.67
2023-04-18T21:48:03.109Z,7.27
2023-04-18T21:53:06.941Z,8.10
2023-04-18T21:58:10.310Z,7.37
2023-04-18T22:03:15.456Z,7.83
2023-04-18T22:08:19.370Z,7.23
2023-04-18T22:13:23.398Z,8.37
2023-04-18T22:18:30.504Z,8.70
2023-04-18T22:23:33.963Z,9.57
2023-04-18T22:28:37.791Z,8.60
2023-04-18T22:33:43.089Z,9.40
2023-04-18T22:38:46.560Z,9.17
2023-04-18T22:43:50.274Z,10.63
2023-04-18T22:48:55.627Z,9.50
2023-04-18T22:53:59.445Z,9.00
2023-04-18T22:59:03.189Z,9.43
2023-04-18T23:04:08.446Z,9.83
2023-04-18T23:09:12.119Z,9.13
2023-04-18T23:14:16.258Z,10.23
2023-04-18T23:19:21.233Z,11.23
2023-04-18T23:24:24.982Z,10.33
2023-04-18T23:29:28.854Z,11.03
2023-04-18T23:34:33.796Z,11.03
2023-04-18T23:39:37.606Z,10.33
2023-04-18T23:44:41.383Z,11.70
2023-04-18T23:49:46.539Z,12.30
2023-04-18T23:54:50.009Z,12.20
2023-04-18T23:59:53.856Z,12.53
